• Join FlightAware (Why Join?)
  • Login
  • US Flag 
01:39PM EDT


 

Airport Tracker/Info


-or-


 

Live Flight TrackerFlight Track Log ✈ FIN666 ✈ 09-Oct-2013 ✈ EKCH / CPH - EFHK / HEL

Flight Track Log - Related Links

Times and Time Zones

All times are in EDT time to prevent confusion due to time zone crossing. See the FIN666 flight status page for this flight to view local times or setup timezone preferences in your user account.

Time Position Orientation Groundspeed Altitude Reporting Facility
EDT Latitude Longitude Course Direction KTS MPH feet Rate Location/Type
07:31AM 55.9296 13.3027 49° Northeast  Level Estimated
07:32AM 56.0070 13.4660 50° Northeast  Level Estimated
07:33AM 56.0842 13.6299 50° Northeast  Level Estimated
07:34AM 56.1612 13.7945 50° Northeast  Level Estimated
07:35AM 56.2391 13.9623 50° Northeast  Level Estimated
07:36AM 56.3168 14.1308 50° Northeast  Level Estimated
07:37AM 56.3942 14.2999 50° Northeast  Level Estimated
07:38AM 56.4715 14.4698 50° Northeast  Level Estimated
07:39AM 56.5484 14.6403 51° Northeast  Level Estimated
07:40AM 56.6252 14.8115 51° Northeast  Level Estimated
07:41AM 56.7017 14.9834 51° Northeast  Level Estimated
07:42AM 56.7780 15.1560 51° Northeast  Level Estimated
07:43AM 56.8540 15.3294 51° Northeast  Level Estimated
07:44AM 56.9298 15.5034 51° Northeast  Level Estimated
07:45AM 57.0054 15.6781 52° Northeast  Level Estimated
07:46AM 57.0807 15.8536 52° Northeast  Level Estimated
07:47AM 57.1557 16.0297 52° Northeast  Level Estimated
07:48AM 57.2306 16.2066 52° Northeast  Level Estimated
07:49AM 57.3051 16.3842 52° Northeast  Level Estimated
07:50AM 57.3795 16.5625 52° Northeast  Level Estimated
07:51AM 57.4535 16.7415 52° Northeast  Level Estimated
07:52AM 57.5273 16.9213 53° Northeast  Level Estimated
07:53AM 57.6009 17.1017 53° Northeast  Level Estimated
07:54AM 57.6742 17.2830 53° Northeast  Level Estimated
07:55AM 57.7472 17.4649 53° Northeast  Level Estimated
07:56AM 57.8200 17.6476 53° Northeast  Level Estimated
07:57AM 57.8925 17.8310 53° Northeast  Level Estimated
07:58AM 57.9647 18.0152 53° Northeast  Level Estimated
07:59AM 58.0367 18.2001 54° Northeast  Level Estimated
08:00AM 58.1084 18.3857 54° Northeast  Level Estimated
08:01AM 58.1798 18.5721 54° Northeast  Level Estimated
08:02AM 58.2510 18.7593 54° Northeast  Level Estimated
08:03AM 58.3219 18.9471 54° Northeast  Level Estimated
08:04AM 58.3925 19.1358 54° Northeast  Level Estimated
08:05AM 58.4628 19.3252 55° Northeast  Level Estimated
08:06AM 58.5329 19.5154 55° Northeast  Level Estimated
08:07AM 58.6026 19.7063 55° Northeast  Level Estimated
08:08AM 58.6721 19.8980 55° Northeast  Level Estimated
08:09AM 58.7413 20.0904 55° Northeast  Level Estimated
08:10AM 58.8102 20.2836 55° Northeast  Level Estimated
08:11AM 58.8788 20.4776 56° Northeast  Level Estimated
08:12AM 58.9472 20.6723 56° Northeast  Level Estimated
08:13AM 59.0152 20.8679 56° Northeast  Level Estimated
08:14AM 59.0840 21.0672 56° Northeast  Level Estimated
08:15AM 59.1525 21.2673 56° Northeast  Level Estimated
08:16AM 59.2206 21.4682 56° Northeast  Level Estimated
08:17AM 59.2885 21.6700 57° Northeast  Level Estimated
08:18AM 59.3560 21.8725 57° Northeast  Level Estimated
08:19AM 59.4233 22.0758 57° Northeast  Level Estimated
08:20AM 59.4902 22.2799 57° Northeast  Level Estimated
08:21AM 59.5568 22.4849 57° Northeast  Level Estimated
08:22AM 59.6230 22.6907 57° Northeast  Level Estimated
08:23AM 59.6890 22.8972 58° Northeast  Level Estimated
08:24AM 59.7546 23.1046 58° Northeast  Level Estimated
08:25AM 59.8199 23.3128 58° Northeast  Level Estimated
08:26AM 59.8848 23.5218 58° Northeast  Level Estimated
08:27AM 59.9495 23.7316 58° Northeast  Level Estimated
08:28AM 60.0138 23.9423 59° Northeast  Level Estimated
08:29AM 60.0777 24.1538 59° Northeast  Level Estimated
08:30AM 60.1413 24.3660 59° Northeast  Level Estimated
08:31AM 60.2046 24.5791 59° Northeast  Level Estimated
08:32AM 60.2676 24.7931 59° Northeast  Level Estimated
08:33AM 60.3172 24.9633 59° Northeast  Level Estimated
08:34AM 60.3172 24.9633 37° Northeast  Level Estimated
08:35AM 60.3172 24.9633 37° Northeast  Level Estimated
08:36AM 60.3172 24.9633 37° Northeast  Level Estimated
08:37AM 60.3172 24.9633 37° Northeast  Level Estimated
08:38AM 60.3172 24.9633 37° Northeast  Level Estimated
08:39AM 60.3172 24.9633 37° Northeast  Level Estimated
08:40AM 60.3172 24.9633 37° Northeast  Level Estimated
08:41AM 60.3172 24.9633 37° Northeast  Level Estimated
08:42AM 60.3172 24.9633 37° Northeast  Level Estimated
08:43AM 60.3172 24.9633 37° Northeast  Level Estimated
08:44AM 60.3172 24.9633 37° Northeast  Level Estimated